sensor_id;sensor_type;location;lat;lon;timestamp;pressure;altitude;pressure_sealevel;temperature;humidity
59831;BME280;45711;50.108;13.712;2023-02-17T00:01:19;98493.09;;;4.90;82.89
59831;BME280;45711;50.108;13.712;2023-02-17T00:03:49;98493.81;;;4.97;83.33
59831;BME280;45711;50.108;13.712;2023-02-17T00:06:19;98504.31;;;5.03;83.15
59831;BME280;45711;50.108;13.712;2023-02-17T00:08:47;98499.19;;;4.90;83.26
59831;BME280;45711;50.108;13.712;2023-02-17T00:11:17;98490.19;;;4.91;82.92
59831;BME280;45711;50.108;13.712;2023-02-17T00:13:48;98490.13;;;4.98;82.75
59831;BME280;45711;50.108;13.712;2023-02-17T00:16:20;98488.94;;;4.94;83.31
59831;BME280;45711;50.108;13.712;2023-02-17T00:18:50;98480.19;;;4.93;82.90
59831;BME280;45711;50.108;13.712;2023-02-17T00:21:19;98481.91;;;4.99;82.73
59831;BME280;45711;50.108;13.712;2023-02-17T00:24:00;98478.09;;;4.95;82.97
59831;BME280;45711;50.108;13.712;2023-02-17T00:26:27;98482.50;;;5.01;82.70
59831;BME280;45711;50.108;13.712;2023-02-17T00:28:56;98475.25;;;4.97;82.76
59831;BME280;45711;50.108;13.712;2023-02-17T00:31:22;98486.41;;;4.99;82.64
59831;BME280;45711;50.108;13.712;2023-02-17T00:33:53;98484.00;;;4.97;82.79
59831;BME280;45711;50.108;13.712;2023-02-17T00:36:20;98475.25;;;4.97;83.44
59831;BME280;45711;50.108;13.712;2023-02-17T00:38:47;98477.09;;;4.96;82.87
59831;BME280;45711;50.108;13.712;2023-02-17T00:41:16;98472.69;;;4.90;83.20
59831;BME280;45711;50.108;13.712;2023-02-17T00:43:42;98472.31;;;4.87;83.66
59831;BME280;45711;50.108;13.712;2023-02-17T00:46:10;98465.16;;;4.87;82.92
59831;BME280;45711;50.108;13.712;2023-02-17T00:48:43;98474.63;;;4.83;83.18
59831;BME280;45711;50.108;13.712;2023-02-17T00:51:25;98471.97;;;4.83;83.52
59831;BME280;45711;50.108;13.712;2023-02-17T00:53:58;98473.25;;;4.81;83.22
59831;BME280;45711;50.108;13.712;2023-02-17T00:56:26;98475.22;;;4.85;83.42
59831;BME280;45711;50.108;13.712;2023-02-17T00:59:01;98484.34;;;4.59;82.32
59831;BME280;45711;50.108;13.712;2023-02-17T01:01:31;98479.72;;;4.54;82.69
59831;BME280;45711;50.108;13.712;2023-02-17T01:04:19;98479.00;;;4.47;82.95
59831;BME280;45711;50.108;13.712;2023-02-17T01:06:46;98476.78;;;4.33;83.93
59831;BME280;45711;50.108;13.712;2023-02-17T01:09:17;98479.97;;;4.53;84.67
59831;BME280;45711;50.108;13.712;2023-02-17T01:11:51;98472.59;;;4.55;84.63
59831;BME280;45711;50.108;13.712;2023-02-17T01:14:21;98469.00;;;4.19;83.33
59831;BME280;45711;50.108;13.712;2023-02-17T01:16:58;98462.53;;;4.45;84.40
59831;BME280;45711;50.108;13.712;2023-02-17T01:19:24;98451.03;;;4.51;84.36
59831;BME280;45711;50.108;13.712;2023-02-17T01:21:50;98453.19;;;4.43;84.61
59831;BME280;45711;50.108;13.712;2023-02-17T01:24:18;98444.53;;;4.36;84.09
59831;BME280;45711;50.108;13.712;2023-02-17T01:26:44;98440.84;;;4.07;84.40
59831;BME280;45711;50.108;13.712;2023-02-17T01:29:12;98437.25;;;4.31;84.84
59831;BME280;45711;50.108;13.712;2023-02-17T01:31:41;98441.69;;;4.49;83.66
59831;BME280;45711;50.108;13.712;2023-02-17T01:34:11;98432.94;;;4.48;84.74
59831;BME280;45711;50.108;13.712;2023-02-17T01:36:36;98425.38;;;4.64;83.77
59831;BME280;45711;50.108;13.712;2023-02-17T01:39:05;98428.16;;;4.39;84.86
59831;BME280;45711;50.108;13.712;2023-02-17T01:41:31;98418.06;;;4.47;83.92
59831;BME280;45711;50.108;13.712;2023-02-17T01:44:05;98425.19;;;4.47;84.04
59831;BME280;45711;50.108;13.712;2023-02-17T01:46:34;98429.00;;;4.51;84.26
59831;BME280;45711;50.108;13.712;2023-02-17T01:49:07;98433.81;;;4.42;82.86
59831;BME280;45711;50.108;13.712;2023-02-17T01:51:38;98426.59;;;4.61;84.79
59831;BME280;45711;50.108;13.712;2023-02-17T01:54:10;98418.31;;;4.58;84.34
59831;BME280;45711;50.108;13.712;2023-02-17T01:56:38;98407.25;;;4.61;83.97
59831;BME280;45711;50.108;13.712;2023-02-17T01:59:13;98405.34;;;4.38;83.22
59831;BME280;45711;50.108;13.712;2023-02-17T02:01:46;98406.22;;;4.20;85.28
59831;BME280;45711;50.108;13.712;2023-02-17T02:04:17;98417.19;;;4.23;83.99
59831;BME280;45711;50.108;13.712;2023-02-17T02:06:53;98406.53;;;4.12;84.08
59831;BME280;45711;50.108;13.712;2023-02-17T02:09:24;98400.56;;;4.16;84.27
59831;BME280;45711;50.108;13.712;2023-02-17T02:11:54;98384.78;;;4.10;83.72
59831;BME280;45711;50.108;13.712;2023-02-17T02:14:21;98389.69;;;4.36;84.34
59831;BME280;45711;50.108;13.712;2023-02-17T02:16:53;98384.34;;;4.24;83.87
59831;BME280;45711;50.108;13.712;2023-02-17T02:22:39;98382.50;;;3.95;85.32
59831;BME280;45711;50.108;13.712;2023-02-17T02:25:38;98385.38;;;3.93;84.80
59831;BME280;45711;50.108;13.712;2023-02-17T02:28:09;98376.50;;;4.18;85.39
59831;BME280;45711;50.108;13.712;2023-02-17T02:31:07;98378.13;;;4.31;84.22
59831;BME280;45711;50.108;13.712;2023-02-17T02:33:46;98373.47;;;4.44;84.69
59831;BME280;45711;50.108;13.712;2023-02-17T02:36:21;98364.63;;;4.62;84.16
59831;BME280;45711;50.108;13.712;2023-02-17T02:38:52;98366.59;;;4.67;83.46
59831;BME280;45711;50.108;13.712;2023-02-17T02:41:26;98354.13;;;4.56;84.26
59831;BME280;45711;50.108;13.712;2023-02-17T02:44:26;98348.25;;;4.65;83.47
59831;BME280;45711;50.108;13.712;2023-02-17T02:46:57;98341.47;;;4.58;83.68
59831;BME280;45711;50.108;13.712;2023-02-17T02:49:27;98338.09;;;4.50;83.50
59831;BME280;45711;50.108;13.712;2023-02-17T02:52:04;98328.19;;;4.58;83.99
59831;BME280;45711;50.108;13.712;2023-02-17T02:54:48;98332.94;;;4.67;83.51
59831;BME280;45711;50.108;13.712;2023-02-17T02:57:37;98323.31;;;4.43;83.28
59831;BME280;45711;50.108;13.712;2023-02-17T03:00:18;98331.59;;;4.35;83.84
59831;BME280;45711;50.108;13.712;2023-02-17T03:02:56;98328.47;;;4.26;84.44
59831;BME280;45711;50.108;13.712;2023-02-17T03:05:48;98329.63;;;4.18;84.82
59831;BME280;45711;50.108;13.712;2023-02-17T03:08:32;98329.44;;;4.32;85.00
59831;BME280;45711;50.108;13.712;2023-02-17T03:11:00;98331.31;;;4.01;85.27
59831;BME280;45711;50.108;13.712;2023-02-17T03:13:26;98329.97;;;4.22;85.19
59831;BME280;45711;50.108;13.712;2023-02-17T03:15:57;98316.34;;;4.07;85.63
59831;BME280;45711;50.108;13.712;2023-02-17T03:18:23;98313.16;;;4.16;85.32
59831;BME280;45711;50.108;13.712;2023-02-17T03:20:52;98301.94;;;4.02;86.21
59831;BME280;45711;50.108;13.712;2023-02-17T03:23:23;98309.94;;;4.26;85.59
59831;BME280;45711;50.108;13.712;2023-02-17T03:25:49;98301.53;;;4.29;84.91
59831;BME280;45711;50.108;13.712;2023-02-17T03:28:20;98306.03;;;4.28;84.95
59831;BME280;45711;50.108;13.712;2023-02-17T03:30:46;98303.97;;;4.42;84.59
59831;BME280;45711;50.108;13.712;2023-02-17T03:33:32;98303.63;;;4.39;84.40
59831;BME280;45711;50.108;13.712;2023-02-17T03:36:07;98300.19;;;4.50;84.33
59831;BME280;45711;50.108;13.712;2023-02-17T03:38:43;98303.88;;;4.49;84.47
59831;BME280;45711;50.108;13.712;2023-02-17T03:41:11;98297.56;;;4.62;83.95
59831;BME280;45711;50.108;13.712;2023-02-17T03:43:39;98286.72;;;4.63;83.50
59831;BME280;45711;50.108;13.712;2023-02-17T03:46:18;98295.81;;;4.56;83.69
59831;BME280;45711;50.108;13.712;2023-02-17T03:48:49;98291.78;;;4.53;84.04
59831;BME280;45711;50.108;13.712;2023-02-17T03:51:25;98295.34;;;4.47;84.12
59831;BME280;45711;50.108;13.712;2023-02-17T03:53:58;98284.72;;;4.35;84.92
59831;BME280;45711;50.108;13.712;2023-02-17T03:56:35;98288.88;;;4.43;84.73
59831;BME280;45711;50.108;13.712;2023-02-17T03:59:03;98299.28;;;4.44;84.61
59831;BME280;45711;50.108;13.712;2023-02-17T04:01:29;98296.25;;;4.52;84.42
59831;BME280;45711;50.108;13.712;2023-02-17T04:03:57;98299.84;;;4.58;83.60
59831;BME280;45711;50.108;13.712;2023-02-17T04:06:40;98306.31;;;4.62;84.07
59831;BME280;45711;50.108;13.712;2023-02-17T04:09:07;98304.81;;;4.66;83.81
59831;BME280;45711;50.108;13.712;2023-02-17T04:11:43;98301.47;;;4.71;83.65
59831;BME280;45711;50.108;13.712;2023-02-17T04:14:16;98294.31;;;4.71;83.39
59831;BME280;45711;50.108;13.712;2023-02-17T04:17:10;98291.31;;;4.68;83.22
59831;BME280;45711;50.108;13.712;2023-02-17T04:19:36;98301.56;;;4.64;83.94
59831;BME280;45711;50.108;13.712;2023-02-17T04:22:06;98299.97;;;4.63;83.28
59831;BME280;45711;50.108;13.712;2023-02-17T04:24:36;98307.22;;;4.68;83.36
59831;BME280;45711;50.108;13.712;2023-02-17T04:27:03;98311.59;;;4.62;83.28
59831;BME280;45711;50.108;13.712;2023-02-17T04:29:32;98301.47;;;4.59;83.75
59831;BME280;45711;50.108;13.712;2023-02-17T04:31:58;98301.22;;;4.49;83.93
59831;BME280;45711;50.108;13.712;2023-02-17T04:34:25;98306.75;;;4.59;83.49
59831;BME280;45711;50.108;13.712;2023-02-17T04:36:57;98295.13;;;4.60;83.76
59831;BME280;45711;50.108;13.712;2023-02-17T04:39:24;98304.66;;;4.61;83.34
59831;BME280;45711;50.108;13.712;2023-02-17T04:41:50;98302.63;;;4.63;83.56
59831;BME280;45711;50.108;13.712;2023-02-17T04:44:16;98292.59;;;4.53;83.63
59831;BME280;45711;50.108;13.712;2023-02-17T04:46:41;98287.41;;;4.59;83.66
59831;BME280;45711;50.108;13.712;2023-02-17T04:49:09;98302.03;;;4.49;84.26
59831;BME280;45711;50.108;13.712;2023-02-17T04:51:35;98297.88;;;4.65;83.68
59831;BME280;45711;50.108;13.712;2023-02-17T04:54:04;98293.97;;;4.68;83.50
59831;BME280;45711;50.108;13.712;2023-02-17T04:56:34;98297.88;;;4.77;82.70
59831;BME280;45711;50.108;13.712;2023-02-17T04:58:59;98293.38;;;4.66;83.27
59831;BME280;45711;50.108;13.712;2023-02-17T05:01:25;98288.66;;;4.68;83.00
59831;BME280;45711;50.108;13.712;2023-02-17T05:03:52;98284.53;;;4.72;82.69
59831;BME280;45711;50.108;13.712;2023-02-17T05:06:18;98286.81;;;4.80;82.74
59831;BME280;45711;50.108;13.712;2023-02-17T05:08:43;98286.25;;;4.66;83.28
59831;BME280;45711;50.108;13.712;2023-02-17T05:11:14;98276.22;;;4.68;83.67
59831;BME280;45711;50.108;13.712;2023-02-17T05:13:44;98267.69;;;4.66;83.02
59831;BME280;45711;50.108;13.712;2023-02-17T05:16:10;98275.66;;;4.54;84.03
59831;BME280;45711;50.108;13.712;2023-02-17T05:18:36;98273.91;;;4.60;84.18
59831;BME280;45711;50.108;13.712;2023-02-17T05:21:04;98271.16;;;4.55;84.29
59831;BME280;45711;50.108;13.712;2023-02-17T05:23:32;98276.91;;;4.52;85.10
59831;BME280;45711;50.108;13.712;2023-02-17T05:26:06;98270.69;;;4.46;85.10
59831;BME280;45711;50.108;13.712;2023-02-17T05:28:33;98278.53;;;4.53;84.81
59831;BME280;45711;50.108;13.712;2023-02-17T05:31:06;98264.69;;;4.51;85.46
59831;BME280;45711;50.108;13.712;2023-02-17T05:33:34;98255.47;;;4.53;85.15
59831;BME280;45711;50.108;13.712;2023-02-17T05:36:08;98265.97;;;4.60;84.66
59831;BME280;45711;50.108;13.712;2023-02-17T05:38:35;98251.09;;;4.59;85.76
59831;BME280;45711;50.108;13.712;2023-02-17T05:41:06;98256.97;;;4.61;84.76
59831;BME280;45711;50.108;13.712;2023-02-17T05:43:34;98261.34;;;4.67;83.91
59831;BME280;45711;50.108;13.712;2023-02-17T05:46:01;98267.47;;;4.68;83.26
59831;BME280;45711;50.108;13.712;2023-02-17T05:48:29;98265.38;;;4.70;84.64
59831;BME280;45711;50.108;13.712;2023-02-17T05:50:56;98264.81;;;4.68;83.73
59831;BME280;45711;50.108;13.712;2023-02-17T05:53:25;98257.78;;;4.62;84.38
59831;BME280;45711;50.108;13.712;2023-02-17T05:55:59;98256.84;;;4.56;85.09
59831;BME280;45711;50.108;13.712;2023-02-17T05:58:26;98260.66;;;4.60;84.50
59831;BME280;45711;50.108;13.712;2023-02-17T06:00:56;98259.41;;;4.63;84.48
59831;BME280;45711;50.108;13.712;2023-02-17T06:03:22;98256.75;;;4.63;85.02
59831;BME280;45711;50.108;13.712;2023-02-17T06:05:57;98257.56;;;4.63;84.13
59831;BME280;45711;50.108;13.712;2023-02-17T06:08:23;98270.56;;;4.76;83.17
59831;BME280;45711;50.108;13.712;2023-02-17T06:10:53;98258.22;;;4.82;83.07
59831;BME280;45711;50.108;13.712;2023-02-17T06:13:21;98256.38;;;4.83;83.04
59831;BME280;45711;50.108;13.712;2023-02-17T06:15:48;98264.81;;;4.79;82.62
59831;BME280;45711;50.108;13.712;2023-02-17T06:18:17;98273.66;;;4.85;82.48
59831;BME280;45711;50.108;13.712;2023-02-17T06:20:43;98271.03;;;4.85;82.77
59831;BME280;45711;50.108;13.712;2023-02-17T06:23:16;98264.56;;;4.81;82.92
59831;BME280;45711;50.108;13.712;2023-02-17T06:25:42;98260.75;;;4.77;83.47
59831;BME280;45711;50.108;13.712;2023-02-17T06:28:07;98259.50;;;4.79;82.91
59831;BME280;45711;50.108;13.712;2023-02-17T06:30:35;98252.47;;;4.73;84.05
59831;BME280;45711;50.108;13.712;2023-02-17T06:33:04;98256.59;;;4.81;83.07
59831;BME280;45711;50.108;13.712;2023-02-17T06:35:30;98250.16;;;4.77;85.47
59831;BME280;45711;50.108;13.712;2023-02-17T06:37:57;98249.47;;;4.82;84.88
59831;BME280;45711;50.108;13.712;2023-02-17T06:40:26;98251.06;;;4.83;84.74
59831;BME280;45711;50.108;13.712;2023-02-17T06:43:05;98241.03;;;4.85;83.93
59831;BME280;45711;50.108;13.712;2023-02-17T06:45:36;98238.59;;;4.83;84.95
59831;BME280;45711;50.108;13.712;2023-02-17T06:48:08;98231.13;;;4.80;84.13
59831;BME280;45711;50.108;13.712;2023-02-17T06:50:34;98236.78;;;4.84;84.13
59831;BME280;45711;50.108;13.712;2023-02-17T06:53:08;98241.75;;;4.80;84.80
59831;BME280;45711;50.108;13.712;2023-02-17T06:55:36;98249.81;;;4.73;84.11
59831;BME280;45711;50.108;13.712;2023-02-17T06:58:12;98249.91;;;4.78;85.30
59831;BME280;45711;50.108;13.712;2023-02-17T07:00:38;98255.56;;;4.82;86.80
59831;BME280;45711;50.108;13.712;2023-02-17T07:03:07;98254.19;;;4.79;83.57
59831;BME280;45711;50.108;13.712;2023-02-17T07:07:11;98251.06;;;4.83;84.35
59831;BME280;45711;50.108;13.712;2023-02-17T07:08:24;98251.75;;;4.78;84.09
59831;BME280;45711;50.108;13.712;2023-02-17T07:11:03;98254.41;;;4.78;83.47
59831;BME280;45711;50.108;13.712;2023-02-17T07:13:29;98256.59;;;4.81;84.58
59831;BME280;45711;50.108;13.712;2023-02-17T07:15:55;98253.84;;;4.76;85.34
59831;BME280;45711;50.108;13.712;2023-02-17T07:18:22;98255.69;;;4.75;84.65
59831;BME280;45711;50.108;13.712;2023-02-17T07:20:51;98235.75;;;4.73;84.89
59831;BME280;45711;50.108;13.712;2023-02-17T07:23:24;98252.56;;;4.78;84.57
59831;BME280;45711;50.108;13.712;2023-02-17T07:26:00;98246.47;;;4.78;85.23
59831;BME280;45711;50.108;13.712;2023-02-17T07:28:26;98252.91;;;4.82;84.64
59831;BME280;45711;50.108;13.712;2023-02-17T07:31:02;98246.56;;;4.95;87.29
59831;BME280;45711;50.108;13.712;2023-02-17T07:37:37;98246.91;;;4.87;86.25
59831;BME280;45711;50.108;13.712;2023-02-17T07:40:19;98246.25;;;4.79;85.98
59831;BME280;45711;50.108;13.712;2023-02-17T07:43:01;98251.88;;;4.83;86.02
59831;BME280;45711;50.108;13.712;2023-02-17T07:45:35;98257.16;;;4.83;86.26
59831;BME280;45711;50.108;13.712;2023-02-17T07:48:06;98245.09;;;4.75;85.85
59831;BME280;45711;50.108;13.712;2023-02-17T07:50:52;98235.50;;;4.74;86.26
59831;BME280;45711;50.108;13.712;2023-02-17T07:53:48;98243.09;;;4.83;87.14
59831;BME280;45711;50.108;13.712;2023-02-17T07:56:37;98235.06;;;4.77;85.63
59831;BME280;45711;50.108;13.712;2023-02-17T07:59:14;98248.56;;;4.76;86.28
59831;BME280;45711;50.108;13.712;2023-02-17T08:01:43;98236.34;;;4.75;86.71
59831;BME280;45711;50.108;13.712;2023-02-17T08:04:23;98242.09;;;4.72;86.15
59831;BME280;45711;50.108;13.712;2023-02-17T08:07:28;98244.50;;;4.73;86.23
59831;BME280;45711;50.108;13.712;2023-02-17T08:10:15;98238.75;;;4.76;86.84
59831;BME280;45711;50.108;13.712;2023-02-17T08:13:44;98236.78;;;4.72;87.10
59831;BME280;45711;50.108;13.712;2023-02-17T08:16:50;98232.06;;;4.74;86.71
59831;BME280;45711;50.108;13.712;2023-02-17T08:19:36;98232.41;;;4.77;86.64
59831;BME280;45711;50.108;13.712;2023-02-17T09:12:22;98203.91;;;5.25;93.12
59831;BME280;45711;50.108;13.712;2023-02-17T09:18:06;98197.75;;;4.96;90.30
59831;BME280;45711;50.108;13.712;2023-02-17T09:20:43;98202.75;;;4.92;87.03
59831;BME280;45711;50.108;13.712;2023-02-17T09:23:44;98204.25;;;4.88;87.55
59831;BME280;45711;50.108;13.712;2023-02-17T09:29:51;98208.53;;;4.89;87.85
59831;BME280;45711;50.108;13.712;2023-02-17T09:32:26;98208.78;;;4.88;87.71
59831;BME280;45711;50.108;13.712;2023-02-17T09:35:30;98205.88;;;4.89;88.70
59831;BME280;45711;50.108;13.712;2023-02-17T09:41:13;98206.66;;;4.90;88.43
59831;BME280;45711;50.108;13.712;2023-02-17T09:43:51;98205.19;;;4.82;88.17
59831;BME280;45711;50.108;13.712;2023-02-17T09:46:40;98216.94;;;4.86;88.23
59831;BME280;45711;50.108;13.712;2023-02-17T09:49:57;98216.22;;;4.91;89.14
59831;BME280;45711;50.108;13.712;2023-02-17T09:52:37;98211.50;;;4.93;88.29
59831;BME280;45711;50.108;13.712;2023-02-17T09:55:16;98220.19;;;4.88;88.44
59831;BME280;45711;50.108;13.712;2023-02-17T09:57:50;98215.44;;;4.90;88.67
59831;BME280;45711;50.108;13.712;2023-02-17T10:00:25;98219.47;;;4.93;89.08
59831;BME280;45711;50.108;13.712;2023-02-17T10:03:29;98211.97;;;4.90;88.92
59831;BME280;45711;50.108;13.712;2023-02-17T10:06:47;98206.78;;;4.83;89.60
59831;BME280;45711;50.108;13.712;2023-02-17T10:10:02;98229.50;;;4.91;89.42
59831;BME280;45711;50.108;13.712;2023-02-17T10:12:50;98213.94;;;4.94;89.83
59831;BME280;45711;50.108;13.712;2023-02-17T10:15:38;98211.63;;;4.86;90.76
59831;BME280;45711;50.108;13.712;2023-02-17T10:24:56;98192.50;;;5.24;90.45
59831;BME280;45711;50.108;13.712;2023-02-17T10:27:44;98181.97;;;5.29;89.48
59831;BME280;45711;50.108;13.712;2023-02-17T10:30:45;98181.81;;;5.08;89.91
59831;BME280;45711;50.108;13.712;2023-02-17T10:37:20;98182.56;;;4.91;90.34
59831;BME280;45711;50.108;13.712;2023-02-17T10:40:17;98173.91;;;4.96;89.99
59831;BME280;45711;50.108;13.712;2023-02-17T10:49:13;98173.88;;;5.08;90.62
59831;BME280;45711;50.108;13.712;2023-02-17T10:51:48;98175.72;;;5.07;90.18
59831;BME280;45711;50.108;13.712;2023-02-17T10:54:53;98162.44;;;5.07;90.23
59831;BME280;45711;50.108;13.712;2023-02-17T10:58:12;98156.91;;;5.09;90.79
59831;BME280;45711;50.108;13.712;2023-02-17T11:04:24;98153.81;;;5.00;91.56
59831;BME280;45711;50.108;13.712;2023-02-17T11:07:30;98143.16;;;5.12;91.23
59831;BME280;45711;50.108;13.712;2023-02-17T11:10:20;98135.44;;;5.55;95.70
59831;BME280;45711;50.108;13.712;2023-02-17T11:13:28;98148.47;;;5.12;90.85
59831;BME280;45711;50.108;13.712;2023-02-17T11:16:50;98132.91;;;5.15;90.88
59831;BME280;45711;50.108;13.712;2023-02-17T11:20:26;98116.09;;;5.10;90.45
59831;BME280;45711;50.108;13.712;2023-02-17T11:26:01;98100.88;;;5.05;91.50
59831;BME280;45711;50.108;13.712;2023-02-17T11:33:11;98090.38;;;5.10;91.14
59831;BME280;45711;50.108;13.712;2023-02-17T11:34:55;98086.03;;;5.21;91.32
59831;BME280;45711;50.108;13.712;2023-02-17T11:41:22;98069.78;;;5.85;94.64
59831;BME280;45711;50.108;13.712;2023-02-17T11:47:14;98072.84;;;5.43;89.58
59831;BME280;45711;50.108;13.712;2023-02-17T11:50:13;98068.19;;;5.33;89.90
59831;BME280;45711;50.108;13.712;2023-02-17T11:56:15;98095.91;;;5.25;90.04
59831;BME280;45711;50.108;13.712;2023-02-17T12:02:16;98070.47;;;5.41;90.82
59831;BME280;45711;50.108;13.712;2023-02-17T12:12:25;98053.97;;;5.22;91.70
59831;BME280;45711;50.108;13.712;2023-02-17T12:15:41;98048.75;;;5.27;92.03
59831;BME280;45711;50.108;13.712;2023-02-17T12:22:34;98031.63;;;5.18;91.86
59831;BME280;45711;50.108;13.712;2023-02-17T12:29:00;98052.28;;;5.33;91.29
59831;BME280;45711;50.108;13.712;2023-02-17T12:32:31;98045.13;;;5.34;92.95
59831;BME280;45711;50.108;13.712;2023-02-17T12:36:22;98051.00;;;5.19;93.23
59831;BME280;45711;50.108;13.712;2023-02-17T12:39:09;98046.00;;;5.22;92.87
59831;BME280;45711;50.108;13.712;2023-02-17T12:42:03;98042.94;;;5.30;94.69
59831;BME280;45711;50.108;13.712;2023-02-17T12:44:51;98037.31;;;5.27;92.43
59831;BME280;45711;50.108;13.712;2023-02-17T12:48:15;98040.78;;;5.27;93.86
59831;BME280;45711;50.108;13.712;2023-02-17T12:52:33;98038.13;;;5.27;92.83
59831;BME280;45711;50.108;13.712;2023-02-17T12:57:40;98024.34;;;5.30;94.05
59831;BME280;45711;50.108;13.712;2023-02-17T13:00:39;98023.09;;;5.33;93.26
59831;BME280;45711;50.108;13.712;2023-02-17T13:03:52;98020.91;;;5.30;93.38
59831;BME280;45711;50.108;13.712;2023-02-17T13:07:29;98019.03;;;5.47;92.51
59831;BME280;45711;50.108;13.712;2023-02-17T13:09:43;98020.25;;;5.40;93.12
59831;BME280;45711;50.108;13.712;2023-02-17T13:12:53;98001.28;;;5.48;92.73
59831;BME280;45711;50.108;13.712;2023-02-17T13:15:39;98006.97;;;5.57;91.75
59831;BME280;45711;50.108;13.712;2023-02-17T13:18:29;98016.13;;;5.66;93.46
59831;BME280;45711;50.108;13.712;2023-02-17T13:20:59;98008.09;;;5.61;92.88
59831;BME280;45711;50.108;13.712;2023-02-17T13:23:43;98005.44;;;5.44;94.14
59831;BME280;45711;50.108;13.712;2023-02-17T13:26:29;97998.03;;;5.79;93.13
59831;BME280;45711;50.108;13.712;2023-02-17T13:29:30;97991.22;;;5.50;92.15
59831;BME280;45711;50.108;13.712;2023-02-17T13:32:25;97986.13;;;5.48;92.27
59831;BME280;45711;50.108;13.712;2023-02-17T13:38:27;97971.91;;;5.54;92.93
59831;BME280;45711;50.108;13.712;2023-02-17T13:40:59;97958.66;;;5.38;93.95
59831;BME280;45711;50.108;13.712;2023-02-17T13:43:42;97952.28;;;5.55;93.61
59831;BME280;45711;50.108;13.712;2023-02-17T13:52:58;97931.47;;;5.30;95.07
59831;BME280;45711;50.108;13.712;2023-02-17T13:55:50;97922.91;;;5.62;95.72
59831;BME280;45711;50.108;13.712;2023-02-17T13:59:15;97916.50;;;5.58;93.39
59831;BME280;45711;50.108;13.712;2023-02-17T14:01:47;97921.97;;;5.73;92.96
59831;BME280;45711;50.108;13.712;2023-02-17T14:04:34;97934.06;;;5.42;94.73
59831;BME280;45711;50.108;13.712;2023-02-17T14:07:17;97923.06;;;5.55;94.76
59831;BME280;45711;50.108;13.712;2023-02-17T14:09:53;97930.91;;;5.45;95.26
59831;BME280;45711;50.108;13.712;2023-02-17T14:29:10;97943.44;;;5.50;95.10
59831;BME280;45711;50.108;13.712;2023-02-17T14:35:55;97951.72;;;5.53;95.37
59831;BME280;45711;50.108;13.712;2023-02-17T14:38:34;97949.69;;;5.61;95.28
59831;BME280;45711;50.108;13.712;2023-02-17T14:41:01;97943.91;;;5.86;96.75
59831;BME280;45711;50.108;13.712;2023-02-17T14:43:27;97947.38;;;6.08;94.93
59831;BME280;45711;50.108;13.712;2023-02-17T14:45:54;97927.97;;;5.86;96.64
59831;BME280;45711;50.108;13.712;2023-02-17T14:48:20;97941.31;;;5.69;96.13
59831;BME280;45711;50.108;13.712;2023-02-17T14:50:46;97943.97;;;5.69;95.32
59831;BME280;45711;50.108;13.712;2023-02-17T14:53:21;97951.66;;;6.09;99.43
59831;BME280;45711;50.108;13.712;2023-02-17T14:55:51;97945.72;;;6.24;93.80
59831;BME280;45711;50.108;13.712;2023-02-17T14:58:20;97939.97;;;5.88;95.41
59831;BME280;45711;50.108;13.712;2023-02-17T15:00:48;97938.75;;;5.96;96.66
59831;BME280;45711;50.108;13.712;2023-02-17T15:03:15;97946.03;;;5.84;95.59
59831;BME280;45711;50.108;13.712;2023-02-17T15:05:41;97942.13;;;6.13;98.09
59831;BME280;45711;50.108;13.712;2023-02-17T15:08:08;97939.59;;;5.79;95.57
59831;BME280;45711;50.108;13.712;2023-02-17T15:13:27;97933.66;;;5.72;95.12
59831;BME280;45711;50.108;13.712;2023-02-17T15:16:04;97936.84;;;5.74;96.09
59831;BME280;45711;50.108;13.712;2023-02-17T15:22:18;97945.38;;;5.76;95.06
59831;BME280;45711;50.108;13.712;2023-02-17T15:25:26;97935.13;;;5.63;95.96
59831;BME280;45711;50.108;13.712;2023-02-17T15:28:17;97930.25;;;5.77;95.42
59831;BME280;45711;50.108;13.712;2023-02-17T15:30:50;97931.63;;;5.79;94.75
59831;BME280;45711;50.108;13.712;2023-02-17T15:53:23;97910.50;;;5.68;95.72
59831;BME280;45711;50.108;13.712;2023-02-17T15:56:37;97904.63;;;5.66;96.31
59831;BME280;45711;50.108;13.712;2023-02-17T16:19:57;97939.88;;;5.61;99.17
59831;BME280;45711;50.108;13.712;2023-02-17T17:00:20;97982.72;;;7.49;99.63
59831;BME280;45711;50.108;13.712;2023-02-17T17:02:47;97979.63;;;7.62;99.52
59831;BME280;45711;50.108;13.712;2023-02-17T17:05:13;97968.69;;;7.64;98.90
59831;BME280;45711;50.108;13.712;2023-02-17T17:07:40;97964.00;;;7.86;97.22
59831;BME280;45711;50.108;13.712;2023-02-17T17:10:07;97960.72;;;7.64;97.70
59831;BME280;45711;50.108;13.712;2023-02-17T17:16:25;97971.34;;;7.59;97.59
59831;BME280;45711;50.108;13.712;2023-02-17T17:19:35;97969.50;;;7.64;97.90
59831;BME280;45711;50.108;13.712;2023-02-17T17:25:49;97951.91;;;7.58;97.96
59831;BME280;45711;50.108;13.712;2023-02-17T17:25:50;97945.00;;;7.62;97.58
59831;BME280;45711;50.108;13.712;2023-02-17T17:28:32;97935.44;;;7.66;97.86
59831;BME280;45711;50.108;13.712;2023-02-17T17:30:57;97941.81;;;7.70;97.67
59831;BME280;45711;50.108;13.712;2023-02-17T17:33:48;97940.19;;;7.64;97.38
59831;BME280;45711;50.108;13.712;2023-02-17T20:26:26;97992.63;;;7.59;96.01
59831;BME280;45711;50.108;13.712;2023-02-17T21:29:39;98033.97;;;7.66;95.64
59831;BME280;45711;50.108;13.712;2023-02-17T21:32:07;98030.47;;;7.61;97.08
59831;BME280;45711;50.108;13.712;2023-02-17T21:34:42;98023.25;;;7.61;97.10
59831;BME280;45711;50.108;13.712;2023-02-17T21:37:39;98012.34;;;7.58;96.58
59831;BME280;45711;50.108;13.712;2023-02-17T21:40:32;98025.94;;;7.61;95.49
59831;BME280;45711;50.108;13.712;2023-02-17T21:43:32;98031.25;;;7.61;96.54
59831;BME280;45711;50.108;13.712;2023-02-17T21:46:56;98021.94;;;7.59;97.14
59831;BME280;45711;50.108;13.712;2023-02-17T21:50:04;98010.50;;;7.63;97.33
59831;BME280;45711;50.108;13.712;2023-02-17T22:13:23;98022.16;;;7.57;96.98
59831;BME280;45711;50.108;13.712;2023-02-17T22:16:46;98035.28;;;7.64;97.54